createdAt,value
2023-02-17T00:01:15.131Z,101359.91
2023-02-17T00:03:41.552Z,101359.53
2023-02-17T00:06:07.993Z,101348.78
2023-02-17T00:08:34.582Z,101347.09
2023-02-17T00:11:01.210Z,101343.66
2023-02-17T00:13:27.850Z,101344.94
2023-02-17T00:15:54.270Z,101345.53
2023-02-17T00:18:20.774Z,101348.44
2023-02-17T00:20:47.225Z,101345.38
2023-02-17T00:23:13.753Z,101342.91
2023-02-17T00:25:40.124Z,101339.22
2023-02-17T00:28:07.069Z,101341.13
2023-02-17T00:30:33.381Z,101344.03
2023-02-17T00:32:59.871Z,101341.56
2023-02-17T00:35:26.211Z,101335.56
2023-02-17T00:37:52.615Z,101330.84
2023-02-17T00:40:18.910Z,101335.63
2023-02-17T00:42:45.274Z,101332.34
2023-02-17T00:45:11.657Z,101325.13
2023-02-17T00:47:38.244Z,101323.28
2023-02-17T00:50:05.207Z,101324.50
2023-02-17T00:52:31.587Z,101327.19
2023-02-17T00:54:58.187Z,101324.94
2023-02-17T00:57:25.005Z,101333.03
2023-02-17T00:59:51.479Z,101331.00
2023-02-17T01:02:18.238Z,101330.63
2023-02-17T01:04:44.665Z,101320.88
2023-02-17T01:07:11.373Z,101321.09
2023-02-17T01:09:37.745Z,101323.81
2023-02-17T01:12:04.081Z,101321.78
2023-02-17T01:14:30.988Z,101321.16
2023-02-17T01:16:57.402Z,101317.44
2023-02-17T01:19:23.792Z,101313.31
2023-02-17T01:21:50.261Z,101305.06
2023-02-17T01:24:16.552Z,101298.06
2023-02-17T01:26:43.224Z,101296.41
2023-02-17T01:29:09.885Z,101293.56
2023-02-17T01:31:36.416Z,101288.59
2023-02-17T01:34:02.890Z,101282.38
2023-02-17T01:36:29.209Z,101282.59
2023-02-17T01:38:55.647Z,101278.28
2023-02-17T01:41:21.964Z,101262.34
2023-02-17T01:43:48.294Z,101265.03
2023-02-17T01:46:15.201Z,101252.03
2023-02-17T01:48:41.570Z,101249.56
2023-02-17T01:51:08.046Z,101251.84
2023-02-17T01:53:34.393Z,101241.69
2023-02-17T01:56:01.014Z,101234.28
2023-02-17T01:58:27.358Z,101225.41
2023-02-17T02:00:53.776Z,101223.72
2023-02-17T02:03:20.265Z,101211.09
2023-02-17T02:05:47.738Z,101221.28
2023-02-17T02:08:14.093Z,101218.81
2023-02-17T02:10:42.103Z,101214.91
2023-02-17T02:13:09.325Z,101216.75
2023-02-17T02:15:36.121Z,101221.56
2023-02-17T02:18:02.574Z,101220.72
2023-02-17T02:20:29.111Z,101219.50
2023-02-17T02:22:55.411Z,101206.06
2023-02-17T02:25:21.768Z,101209.81
2023-02-17T02:27:48.280Z,101203.59
2023-02-17T02:30:14.870Z,101201.09
2023-02-17T02:32:41.277Z,101190.41
2023-02-17T02:35:07.693Z,101194.31
2023-02-17T02:37:34.258Z,101190.41
2023-02-17T02:40:00.617Z,101182.97
2023-02-17T02:42:27.354Z,101181.75
2023-02-17T02:44:53.757Z,101180.09
2023-02-17T02:47:20.222Z,101182.19
2023-02-17T02:49:46.577Z,101178.91
2023-02-17T02:52:12.965Z,101165.88
2023-02-17T02:54:39.352Z,101172.69
2023-02-17T02:57:05.846Z,101169.19
2023-02-17T02:59:32.542Z,101164.69
2023-02-17T03:01:59.208Z,101164.69
2023-02-17T03:04:25.586Z,101160.72
2023-02-17T03:06:51.970Z,101156.19
2023-02-17T03:09:18.330Z,101157.00
2023-02-17T03:11:44.693Z,101144.59
2023-02-17T03:14:11.042Z,101146.94
2023-02-17T03:16:37.536Z,101142.59
2023-02-17T03:19:04.059Z,101136.16
2023-02-17T03:21:30.921Z,101133.47
2023-02-17T03:23:57.261Z,101131.84
2023-02-17T03:26:24.121Z,101123.16
2023-02-17T03:28:51.497Z,101128.75
2023-02-17T03:31:17.822Z,101116.13
2023-02-17T03:33:44.272Z,101123.38
2023-02-17T03:36:10.811Z,101123.59
2023-02-17T03:38:37.275Z,101107.28
2023-02-17T03:41:03.668Z,101114.09
2023-02-17T03:43:30.117Z,101109.19
2023-02-17T03:45:56.544Z,101114.56
2023-02-17T03:48:23.484Z,101115.00
2023-02-17T03:50:49.920Z,101116.03
2023-02-17T03:53:16.252Z,101100.34
2023-02-17T03:55:43.168Z,101091.91
2023-02-17T03:58:09.839Z,101098.69
2023-02-17T04:00:36.224Z,101094.59
2023-02-17T04:03:02.589Z,101096.44
2023-02-17T04:05:29.398Z,101092.91
2023-02-17T04:07:55.748Z,101084.06
2023-02-17T04:10:22.380Z,101085.31
2023-02-17T04:12:49.108Z,101086.13
2023-02-17T04:15:15.483Z,101082.00
2023-02-17T04:17:41.994Z,101086.34
2023-02-17T04:20:08.299Z,101083.50
2023-02-17T04:22:34.664Z,101084.53
2023-02-17T04:25:01.211Z,101082.44
2023-02-17T04:27:27.927Z,101074.84
2023-02-17T04:29:54.417Z,101074.84
2023-02-17T04:32:21.084Z,101066.38
2023-02-17T04:34:47.643Z,101071.09
2023-02-17T04:37:14.118Z,101068.84
2023-02-17T04:39:40.544Z,101063.47
2023-02-17T04:42:07.380Z,101063.94
2023-02-17T04:44:33.731Z,101063.47
2023-02-17T04:47:00.129Z,101061.25
2023-02-17T04:49:26.492Z,101058.56
2023-02-17T04:51:53.087Z,101056.06
2023-02-17T04:54:19.497Z,101056.50
2023-02-17T04:56:45.976Z,101054.88
2023-02-17T04:59:12.259Z,101061.03
2023-02-17T05:01:39.176Z,101055.28
2023-02-17T05:04:06.380Z,101055.09
2023-02-17T05:06:32.711Z,101065.63
2023-02-17T05:08:59.097Z,101053.66
2023-02-17T05:11:25.388Z,101051.19
2023-02-17T05:13:51.815Z,101055.13
2023-02-17T05:16:18.231Z,101056.34
2023-02-17T05:18:45.036Z,101054.94
2023-02-17T05:21:11.828Z,101055.97
2023-02-17T05:23:38.527Z,101053.72
2023-02-17T05:26:05.396Z,101041.91
2023-02-17T05:28:31.866Z,101035.97
2023-02-17T05:30:58.382Z,101031.38
2023-02-17T05:33:25.001Z,101035.97
2023-02-17T05:35:51.409Z,101031.22
2023-02-17T05:38:17.779Z,101025.69
2023-02-17T05:40:44.225Z,101023.38
2023-02-17T05:43:11.076Z,101014.53
2023-02-17T05:45:37.631Z,101016.59
2023-02-17T05:48:04.005Z,101021.75
2023-02-17T05:50:30.399Z,101017.41
2023-02-17T05:52:56.671Z,101007.69
2023-02-17T05:55:23.000Z,101007.31
2023-02-17T05:57:49.566Z,101008.38
2023-02-17T06:00:16.030Z,101014.56
2023-02-17T06:02:42.335Z,101004.63
2023-02-17T06:05:08.931Z,101003.22
2023-02-17T06:07:35.412Z,101004.25
2023-02-17T06:10:01.780Z,100998.47
2023-02-17T06:12:28.093Z,101000.94
2023-02-17T06:14:54.514Z,100991.25
2023-02-17T06:17:20.864Z,101002.44
2023-02-17T06:19:47.191Z,101005.13
2023-02-17T06:22:13.526Z,101011.31
2023-02-17T06:24:39.963Z,101005.34
2023-02-17T06:27:06.466Z,101006.16
2023-02-17T06:29:33.197Z,101010.94
2023-02-17T06:31:59.654Z,101003.91
2023-02-17T06:34:26.260Z,101000.63
2023-02-17T06:36:52.682Z,101004.94
2023-02-17T06:39:19.633Z,100999.00
2023-02-17T06:41:45.983Z,100993.41
2023-02-17T06:44:12.297Z,100993.63
2023-02-17T06:46:38.866Z,100994.63
2023-02-17T06:49:05.484Z,100994.88
2023-02-17T06:51:31.838Z,100988.66
2023-02-17T06:53:58.698Z,100985.44
2023-02-17T06:56:25.049Z,100993.28
2023-02-17T06:58:51.426Z,100983.38
2023-02-17T07:01:17.800Z,100987.91
2023-02-17T07:03:44.485Z,100988.75
2023-02-17T07:06:11.507Z,100990.16
2023-02-17T07:08:37.873Z,100983.75
2023-02-17T07:11:04.265Z,100983.97
2023-02-17T07:13:30.891Z,100991.44
2023-02-17T07:15:57.214Z,100993.06
2023-02-17T07:18:23.618Z,100992.84
2023-02-17T07:20:50.055Z,100999.47
2023-02-17T07:23:16.434Z,101000.31
2023-02-17T07:25:42.786Z,100993.50
2023-02-17T07:28:09.528Z,100992.91
2023-02-17T07:30:36.166Z,100981.31
2023-02-17T07:33:02.541Z,100974.69
2023-02-17T07:35:29.200Z,100974.69
2023-02-17T07:37:55.803Z,100968.75
2023-02-17T07:40:22.201Z,100967.09
2023-02-17T07:42:48.707Z,100965.47
2023-02-17T07:45:15.080Z,100964.41
2023-02-17T07:47:41.729Z,100961.09
2023-02-17T07:50:08.432Z,100952.47
2023-02-17T07:52:35.172Z,100942.53
2023-02-17T07:55:01.528Z,100948.72
2023-02-17T07:57:28.009Z,100950.81
2023-02-17T07:59:54.675Z,100947.09
2023-02-17T08:02:21.054Z,100945.88
2023-02-17T08:04:47.427Z,100944.84
2023-02-17T08:07:13.829Z,100940.50
2023-02-17T08:09:40.786Z,100946.69
2023-02-17T08:12:07.254Z,100941.31
2023-02-17T08:14:33.701Z,100936.19
2023-02-17T08:17:00.715Z,100935.63
2023-02-17T08:19:33.808Z,100934.84
2023-02-17T08:22:09.709Z,100926.41
2023-02-17T08:24:36.159Z,100924.09
2023-02-17T08:27:02.608Z,100925.78
2023-02-17T08:29:29.109Z,100929.25
2023-02-17T08:31:55.660Z,100928.25
2023-02-17T08:34:22.118Z,100926.56
2023-02-17T08:36:48.485Z,100926.34
2023-02-17T08:39:14.742Z,100927.19
2023-02-17T08:41:41.233Z,100931.13
2023-02-17T08:44:07.647Z,100927.41
2023-02-17T08:46:34.181Z,100937.09
2023-02-17T08:49:00.621Z,100936.72
2023-02-17T08:51:27.158Z,100935.66
2023-02-17T08:53:53.621Z,100935.66
2023-02-17T08:56:19.929Z,100928.88
2023-02-17T08:58:46.787Z,100929.91
2023-02-17T09:01:13.476Z,100924.56
2023-02-17T09:03:40.143Z,100920.00
2023-02-17T09:06:06.949Z,100922.91
2023-02-17T09:08:33.552Z,100916.72
2023-02-17T09:10:59.888Z,100914.63
2023-02-17T09:13:26.350Z,100905.97
2023-02-17T09:15:52.729Z,100906.41
2023-02-17T09:18:19.214Z,100906.19
2023-02-17T09:20:45.599Z,100903.50
2023-02-17T09:23:12.462Z,100903.31
2023-02-17T09:25:38.966Z,100898.34
2023-02-17T09:28:05.695Z,100889.25
2023-02-17T09:30:32.157Z,100889.50
2023-02-17T09:32:58.636Z,100883.31
2023-02-17T09:35:24.968Z,100876.31
2023-02-17T09:37:51.294Z,100880.00
2023-02-17T09:40:17.904Z,100869.06
2023-02-17T09:42:45.022Z,100873.00
2023-02-17T09:45:12.901Z,100854.22
2023-02-17T09:47:39.406Z,100856.09
2023-02-17T09:50:06.189Z,100854.22
2023-02-17T09:52:32.511Z,100832.38
2023-02-17T09:54:59.027Z,100833.22
2023-02-17T09:57:25.673Z,100824.75
2023-02-17T09:59:52.798Z,100830.97
2023-02-17T10:02:19.254Z,100823.66
2023-02-17T10:04:45.871Z,100820.81
2023-02-17T10:07:12.216Z,100811.50
2023-02-17T10:09:39.155Z,100807.81
2023-02-17T10:12:05.584Z,100797.88
2023-02-17T10:14:31.948Z,100794.75
2023-02-17T10:16:58.324Z,100802.38
2023-02-17T10:19:25.328Z,100801.28
2023-02-17T10:21:51.669Z,100796.53
2023-02-17T10:24:18.310Z,100795.53
2023-02-17T10:26:45.372Z,100790.53
2023-02-17T10:29:12.263Z,100777.69
2023-02-17T10:31:39.590Z,100777.47
2023-02-17T10:34:06.674Z,100777.47
2023-02-17T10:36:33.279Z,100775.63
2023-02-17T10:38:59.553Z,100779.94
2023-02-17T10:41:26.274Z,100767.38
2023-02-17T10:43:52.810Z,100769.59
2023-02-17T10:46:19.171Z,100773.31
2023-02-17T10:48:45.475Z,100759.09
2023-02-17T10:51:11.814Z,100754.75
2023-02-17T10:53:38.160Z,100756.41
2023-02-17T10:56:04.973Z,100750.00
2023-02-17T10:58:32.133Z,100741.56
2023-02-17T11:00:58.576Z,100729.19
2023-02-17T11:03:24.986Z,100723.81
2023-02-17T11:05:51.547Z,100723.00
2023-02-17T11:08:18.270Z,100707.69
2023-02-17T11:10:44.646Z,100699.06
2023-02-17T11:13:11.342Z,100691.25
2023-02-17T11:15:38.258Z,100684.03
2023-02-17T11:18:04.606Z,100677.22
2023-02-17T11:20:31.081Z,100675.56
2023-02-17T11:22:57.654Z,100666.72
2023-02-17T11:25:23.973Z,100660.53
2023-02-17T11:27:50.334Z,100648.97
2023-02-17T11:30:16.657Z,100648.38
2023-02-17T11:32:43.655Z,100645.09
2023-02-17T11:35:10.484Z,100641.59
2023-02-17T11:37:37.481Z,100629.44
2023-02-17T11:40:03.767Z,100630.03
2023-02-17T11:42:30.172Z,100616.03
2023-02-17T11:44:56.550Z,100622.41
2023-02-17T11:47:23.614Z,100604.69
2023-02-17T11:49:50.083Z,100594.19
2023-02-17T11:52:16.490Z,100587.78
2023-02-17T11:54:43.581Z,100583.09
2023-02-17T11:57:11.084Z,100579.22
2023-02-17T11:59:37.507Z,100575.78
2023-02-17T12:02:04.089Z,100577.88
2023-02-17T12:04:30.737Z,100575.56
2023-02-17T12:06:57.046Z,100574.75
2023-02-17T12:09:23.361Z,100567.28
2023-02-17T12:11:49.748Z,100562.75
2023-02-17T12:14:16.088Z,100546.06
2023-02-17T12:16:42.973Z,100546.88
2023-02-17T12:19:09.569Z,100542.56
2023-02-17T12:21:35.920Z,100554.09
2023-02-17T12:24:02.290Z,100532.84
2023-02-17T12:26:28.992Z,100549.78
2023-02-17T12:28:55.395Z,100529.38
2023-02-17T12:31:21.840Z,100520.28
2023-02-17T12:33:48.606Z,100507.69
2023-02-17T12:36:15.179Z,100488.94
2023-02-17T12:38:42.103Z,100485.63
2023-02-17T12:41:08.967Z,100484.56
2023-02-17T12:43:35.632Z,100483.34
2023-02-17T12:46:01.978Z,100477.38
2023-02-17T12:48:28.330Z,100468.47
2023-02-17T12:50:55.145Z,100473.84
2023-02-17T12:53:21.989Z,100465.22
2023-02-17T12:55:49.013Z,100479.47
2023-02-17T12:58:15.927Z,100468.75
2023-02-17T13:00:42.519Z,100462.53
2023-02-17T13:03:08.893Z,100461.50
2023-02-17T13:05:35.264Z,100451.81
2023-02-17T13:08:01.711Z,100453.44
2023-02-17T13:10:28.718Z,100434.09
2023-02-17T13:12:55.126Z,100427.91
2023-02-17T13:15:21.503Z,100419.63
2023-02-17T13:17:47.980Z,100426.63
2023-02-17T13:20:14.535Z,100436.56
2023-02-17T13:22:40.917Z,100425.22
2023-02-17T13:25:07.851Z,100424.41
2023-02-17T13:27:34.388Z,100409.97
2023-02-17T13:30:00.964Z,100396.78
2023-02-17T13:32:27.652Z,100402.13
2023-02-17T13:34:54.701Z,100397.59
2023-02-17T13:37:21.112Z,100394.31
2023-02-17T13:39:48.149Z,100400.72
2023-02-17T13:42:14.516Z,100402.34
2023-02-17T13:44:40.946Z,100406.88
2023-02-17T13:47:07.370Z,100389.78
2023-02-17T13:49:33.730Z,100380.91
2023-02-17T13:52:00.335Z,100371.22
2023-02-17T13:54:26.714Z,100380.06
2023-02-17T13:56:52.990Z,100379.28
2023-02-17T13:59:19.289Z,100395.16
2023-02-17T14:01:46.300Z,100390.81
2023-02-17T14:04:13.005Z,100395.38
2023-02-17T14:06:39.590Z,100396.16
2023-02-17T14:09:06.291Z,100397.81
2023-02-17T14:11:33.214Z,100385.44
2023-02-17T14:13:59.532Z,100385.44
2023-02-17T14:16:26.139Z,100394.53
2023-02-17T14:18:52.590Z,100377.16
2023-02-17T14:21:19.070Z,100363.75
2023-02-17T14:23:45.552Z,100366.44
2023-02-17T14:26:11.993Z,100366.44
2023-02-17T14:28:39.030Z,100361.69
2023-02-17T14:31:05.707Z,100349.31
2023-02-17T14:33:32.585Z,100358.38
2023-02-17T14:35:59.019Z,100357.38
2023-02-17T14:38:25.637Z,100362.72
2023-02-17T14:40:52.114Z,100357.13
2023-02-17T14:43:18.566Z,100359.78
2023-02-17T14:45:45.275Z,100347.00
2023-02-17T14:48:11.750Z,100356.66
2023-02-17T14:50:38.262Z,100350.47
2023-02-17T14:53:05.141Z,100355.84
2023-02-17T14:55:31.520Z,100348.84
2023-02-17T14:57:57.886Z,100342.44
2023-02-17T15:00:25.295Z,100342.69
2023-02-17T15:02:53.190Z,100356.88
2023-02-17T15:05:19.786Z,100342.91
2023-02-17T15:07:46.136Z,100343.69
2023-02-17T15:10:12.479Z,100342.91
2023-02-17T15:12:40.285Z,100338.00
2023-02-17T15:15:06.673Z,100343.97
2023-02-17T15:17:33.041Z,100346.03
2023-02-17T15:19:59.435Z,100341.72
2023-02-17T15:22:25.761Z,100343.59
2023-02-17T15:24:52.131Z,100350.81
2023-02-17T15:27:18.914Z,100351.84
2023-02-17T15:29:45.276Z,100362.00
2023-02-17T15:32:11.741Z,100356.88
2023-02-17T15:34:38.173Z,100366.53
2023-02-17T15:37:04.582Z,100360.59
2023-02-17T15:39:31.015Z,100369.44
2023-02-17T15:41:57.673Z,100363.28
2023-02-17T15:44:24.637Z,100357.91
2023-02-17T15:46:51.635Z,100360.59
2023-02-17T15:49:18.061Z,100369.09
2023-02-17T15:51:45.096Z,100362.66
2023-02-17T15:54:11.837Z,100366.19
2023-02-17T15:56:38.697Z,100363.16
2023-02-17T15:59:05.207Z,100367.47
2023-02-17T16:01:31.794Z,100369.78
2023-02-17T16:03:58.147Z,100368.13
2023-02-17T16:06:24.479Z,100385.03
2023-02-17T16:08:50.837Z,100378.63
2023-02-17T16:11:17.121Z,100385.28
2023-02-17T16:13:43.600Z,100366.94
2023-02-17T16:16:10.225Z,100382.81
2023-02-17T16:18:36.558Z,100382.00
2023-02-17T16:21:02.836Z,100385.72
2023-02-17T16:23:29.444Z,100392.13
2023-02-17T16:25:55.778Z,100396.31
2023-02-17T16:28:22.152Z,100396.09
2023-02-17T16:30:48.582Z,100399.81
2023-02-17T16:33:15.110Z,100403.53
2023-02-17T16:35:41.574Z,100401.09
2023-02-17T16:38:08.465Z,100402.09
2023-02-17T16:40:34.742Z,100404.78
2023-02-17T16:43:01.323Z,100410.97
2023-02-17T16:45:28.126Z,100400.25
2023-02-17T16:47:54.468Z,100408.53
2023-02-17T16:50:20.814Z,100398.84
2023-02-17T16:52:47.157Z,100403.63
2023-02-17T16:55:13.558Z,100409.00
2023-02-17T16:57:40.061Z,100407.13
2023-02-17T17:00:06.757Z,100416.44
2023-02-17T17:02:33.230Z,100418.06
2023-02-17T17:04:59.683Z,100421.56
2023-02-17T17:07:26.230Z,100408.16
2023-02-17T17:10:14.635Z,100401.16
2023-02-17T17:12:39.435Z,100400.34
2023-02-17T17:15:05.791Z,100402.81
2023-02-17T17:17:32.149Z,100398.72
2023-02-17T17:19:58.802Z,100394.16
2023-02-17T17:22:25.163Z,100393.94
2023-02-17T17:24:51.553Z,100390.66
2023-02-17T17:27:17.950Z,100391.69
2023-02-17T17:29:44.954Z,100411.25
2023-02-17T17:32:11.838Z,100400.53
2023-02-17T17:34:38.298Z,100404.25
2023-02-17T17:37:05.145Z,100394.59
2023-02-17T17:39:31.874Z,100383.88
2023-02-17T17:41:58.266Z,100387.56
2023-02-17T17:44:24.688Z,100381.19
2023-02-17T17:46:51.045Z,100385.94
2023-02-17T17:49:17.392Z,100398.28
2023-02-17T17:51:43.796Z,100401.22
2023-02-17T17:54:10.358Z,100395.88
2023-02-17T17:56:36.702Z,100396.66
2023-02-17T17:59:03.059Z,100397.94
2023-02-17T18:01:29.517Z,100401.22
2023-02-17T18:03:56.067Z,100398.28
2023-02-17T18:06:22.866Z,100400.41
2023-02-17T18:08:49.563Z,100405.97
2023-02-17T18:11:16.292Z,100403.28
2023-02-17T18:13:42.684Z,100405.97
2023-02-17T18:16:09.917Z,100396.09
2023-02-17T18:18:36.542Z,100416.69
2023-02-17T18:21:03.114Z,100423.94
2023-02-17T18:23:29.760Z,100428.47
2023-02-17T18:25:56.082Z,100429.28
2023-02-17T18:28:22.465Z,100424.16
2023-02-17T18:30:48.892Z,100429.50
2023-02-17T18:33:15.218Z,100417.97
2023-02-17T18:35:41.784Z,100428.47
2023-02-17T18:38:08.156Z,100449.06
2023-02-17T18:40:34.501Z,100435.91
2023-02-17T18:43:01.516Z,100452.81
2023-02-17T18:45:27.917Z,100441.88
2023-02-17T18:47:54.236Z,100446.63
2023-02-17T18:50:21.594Z,100464.34
2023-02-17T18:52:48.012Z,100468.88
2023-02-17T18:55:14.372Z,100441.25
2023-02-17T18:57:41.299Z,100464.56
2023-02-17T19:00:07.629Z,100466.41
2023-02-17T19:02:34.080Z,100474.69
2023-02-17T19:05:00.526Z,100503.72
2023-02-17T19:07:27.354Z,100509.09
2023-02-17T19:09:53.773Z,100502.91
2023-02-17T19:12:20.134Z,100506.84
2023-02-17T19:14:47.044Z,100484.59
2023-02-17T19:17:13.800Z,100490.75
2023-02-17T19:19:40.344Z,100505.22
2023-02-17T19:22:06.751Z,100515.34
2023-02-17T19:24:33.066Z,100510.34
2023-02-17T19:26:59.377Z,100504.38
2023-02-17T19:29:25.810Z,100511.41
2023-02-17T19:31:52.274Z,100525.59
2023-02-17T19:34:18.695Z,100521.50
2023-02-17T19:36:45.018Z,100536.09
2023-02-17T19:39:11.373Z,100524.19
2023-02-17T19:41:37.737Z,100524.78
2023-02-17T19:44:04.461Z,100527.25
2023-02-17T19:46:31.201Z,100553.22
2023-02-17T19:48:57.896Z,100541.69
2023-02-17T19:51:24.328Z,100543.56
2023-02-17T19:53:50.648Z,100556.97
2023-02-17T19:56:17.006Z,100550.97
2023-02-17T19:58:43.409Z,100561.69
2023-02-17T20:01:09.848Z,100573.25
2023-02-17T20:03:36.294Z,100565.22
2023-02-17T20:06:02.647Z,100565.22
2023-02-17T20:08:28.977Z,100562.53
2023-02-17T20:10:55.321Z,100559.03
2023-02-17T20:13:21.632Z,100573.25
2023-02-17T20:15:48.654Z,100569.16
2023-02-17T20:18:14.990Z,100569.16
2023-02-17T20:20:41.479Z,100573.47
2023-02-17T20:23:07.876Z,100582.34
2023-02-17T20:25:34.781Z,100587.91
2023-02-17T20:28:01.417Z,100587.28
2023-02-17T20:30:27.854Z,100600.69
2023-02-17T20:32:54.642Z,100604.22
2023-02-17T20:35:21.701Z,100606.88
2023-02-17T20:37:48.150Z,100613.06
2023-02-17T20:40:15.144Z,100608.53
2023-02-17T20:42:41.580Z,100607.47
2023-02-17T20:45:08.143Z,100610.97
2023-02-17T20:47:34.570Z,100605.03
2023-02-17T20:50:01.273Z,100603.38
2023-02-17T20:52:27.938Z,100607.94
2023-02-17T20:54:54.384Z,100620.50
2023-02-17T20:57:20.780Z,100639.03
2023-02-17T20:59:47.181Z,100648.34
2023-02-17T21:02:13.769Z,100651.22
2023-02-17T21:04:40.179Z,100648.34
2023-02-17T21:07:07.118Z,100659.06
2023-02-17T21:09:33.544Z,100665.22
2023-02-17T21:11:59.961Z,100659.84
2023-02-17T21:14:26.433Z,100663.59
2023-02-17T21:16:53.543Z,100679.44
2023-02-17T21:19:20.020Z,100700.88
2023-02-17T21:21:46.726Z,100700.88
2023-02-17T21:24:13.073Z,100702.97
2023-02-17T21:26:39.854Z,100702.97
2023-02-17T21:29:06.238Z,100722.53
2023-02-17T21:31:32.677Z,100716.38
2023-02-17T21:33:59.452Z,100726.25
2023-02-17T21:36:27.462Z,100715.75
2023-02-17T21:38:55.421Z,100727.50
2023-02-17T21:41:21.807Z,100715.75
2023-02-17T21:43:48.182Z,100726.47
2023-02-17T21:46:14.567Z,100716.81
2023-02-17T21:48:40.986Z,100728.34
2023-02-17T21:51:07.348Z,100720.53
2023-02-17T21:53:34.197Z,100716.19
2023-02-17T21:56:00.972Z,100737.41
2023-02-17T21:58:27.355Z,100747.53
2023-02-17T22:00:53.711Z,100734.13
2023-02-17T22:03:20.292Z,100743.81
2023-02-17T22:05:46.938Z,100745.66
2023-02-17T22:08:14.128Z,100754.72
2023-02-17T22:10:40.963Z,100750.22
2023-02-17T22:13:07.599Z,100760.09
2023-02-17T22:15:34.112Z,100768.34
2023-02-17T22:18:00.605Z,100767.31
2023-02-17T22:20:26.966Z,100780.72
2023-02-17T22:22:53.328Z,100784.41
2023-02-17T22:25:19.982Z,100776.59
2023-02-17T22:27:46.547Z,100796.38
2023-02-17T22:30:13.095Z,100796.38
2023-02-17T22:32:39.507Z,100786.50
2023-02-17T22:35:05.883Z,100789.19
2023-02-17T22:37:32.185Z,100789.19
2023-02-17T22:39:58.466Z,100791.84
2023-02-17T22:42:25.073Z,100799.28
2023-02-17T22:44:51.445Z,100808.34
2023-02-17T22:47:17.805Z,100811.88
2023-02-17T22:49:44.221Z,100824.44
2023-02-17T22:52:10.634Z,100826.31
2023-02-17T22:54:37.207Z,100845.84
2023-02-17T22:57:03.575Z,100831.66
2023-02-17T22:59:30.213Z,100846.69
2023-02-17T23:01:57.085Z,100848.53
2023-02-17T23:04:23.546Z,100853.09
2023-02-17T23:06:50.009Z,100865.44
2023-02-17T23:09:16.410Z,100865.66
2023-02-17T23:11:42.767Z,100858.47
2023-02-17T23:14:09.147Z,100867.72
2023-02-17T23:16:35.773Z,100860.72
2023-02-17T23:19:02.144Z,100877.63
2023-02-17T23:21:28.598Z,100879.25
2023-02-17T23:23:54.937Z,100884.03
2023-02-17T23:26:21.253Z,100874.94
2023-02-17T23:28:47.617Z,100892.66
2023-02-17T23:31:14.174Z,100888.34
2023-02-17T23:33:40.603Z,100884.22
2023-02-17T23:36:07.383Z,100885.03
2023-02-17T23:38:34.092Z,100881.53
2023-02-17T23:41:00.374Z,100884.22
2023-02-17T23:43:27.572Z,100893.06
2023-02-17T23:45:54.042Z,100887.72
2023-02-17T23:48:20.461Z,100896.59
2023-02-17T23:50:46.907Z,100895.75
2023-02-17T23:53:13.224Z,100895.75
2023-02-17T23:55:39.731Z,100889.59
2023-02-17T23:58:06.043Z,100898.63
